Aérodrome :
LOGIN :

S'inscrire | Disclaimer

   EN    FR    IT 

 










Légende :    VFR   VFR Marginal   IFR   IFR Intensif   IFR Très Intensif
Visi : 
Plafond : 
>= 8 km
>= 3000ft
5 à 8 km
1000 à 3000 ft
1500m à 5 km
500 à 1000 ft
800 à 1500m
200 à 500 ft
< 800m
< 200 ft
Symboles :   Orages  Brouillard  Fortes neiges  Fortes précipitations  Vent > 20 kt
SIGMETs :   Divers  Orages  Givrage  Turbulence  Onde Orograph.  Cendres Volcan.







- Altitude de l'aérodrome : 33 ft
- Code IATA : MHZ


EGUN - RAF Mildenhall

DERNIER METAR :
  • 230131Z 25006KT 9999 BKN026 08/08 A3033 RMK AO2A BKN V SCT SLP274 WND DATA ESTMD $

METARs EXPIRÉS :
  • 230126Z 25004KT 9999 SCT026 08/08 A3034 RMK AO2A SLP278 WND DATA ESTMD $
  • 230056Z 24006KT 9999 FEW029 08/08 A3033 RMK AO2A SLP274 WND DATA ESTMD T00770077 .

TAF TAF EGUN
Valide du 22 à 20h jusqu'au 24 à 02h UTC


222005Z 2220/2402 28009KT 9999 BKN030 QNH3028INS
BECMG 2301/2302 34009KT 9999 BKN020 QNH3035INS
TEMPO 2302/2305 BKN018
BECMG 2306/2307 02009KT 9999 BKN040 QNH3043INS
BECMG 2313/2314 04009KT 9999 SCT025 BKN100 QNH3050INS TX11/2220Z TN07/2320Z
Pas de NOTAMs connus pour ce terrain.



MET'MAP, la Météo Aéronautique d'un coup d'oeil ! - Copyright ORBIFLY Décembre 2007 - Disclaimer

ORBIFLY MET'MAP TEAM :

Programmation & Développement : Alexandra Zaïnal
Conception & Développement : Baudouin d'Aumeries
Co-Programmation & Développement : Marc-Olivier Méhu
Soutien technique & logistique : Manuel Goepfert

Contact : metmap@orbifly.com




SOURCES & CREDITS :

   NOAA